createdAt,value
2023-05-21T00:01:32.245Z,7.03
2023-05-21T00:04:00.727Z,5.23
2023-05-21T00:06:30.401Z,5.27
2023-05-21T00:08:58.225Z,5.03
2023-05-21T00:11:25.993Z,6.27
2023-05-21T00:13:53.695Z,6.90
2023-05-21T00:16:21.574Z,7.60
2023-05-21T00:18:50.358Z,9.70
2023-05-21T00:21:22.672Z,6.83
2023-05-21T00:23:51.868Z,5.73
2023-05-21T00:26:19.679Z,4.83
2023-05-21T00:28:47.380Z,5.00
2023-05-21T00:31:15.976Z,5.73
2023-05-21T00:33:43.707Z,4.57
2023-05-21T00:36:14.290Z,5.57
2023-05-21T00:38:43.626Z,5.80
2023-05-21T00:41:12.795Z,7.17
2023-05-21T00:43:40.741Z,7.27
2023-05-21T00:46:08.759Z,8.93
2023-05-21T00:48:36.560Z,4.17
2023-05-21T00:51:04.474Z,4.23
2023-05-21T00:53:34.943Z,5.37
2023-05-21T00:56:02.842Z,4.77
2023-05-21T00:58:33.608Z,6.97
2023-05-21T01:01:03.648Z,5.67
2023-05-21T01:03:38.671Z,6.13
2023-05-21T01:06:07.205Z,7.63
2023-05-21T01:08:36.292Z,6.67
2023-05-21T01:11:04.970Z,6.67
2023-05-21T01:13:35.724Z,9.57
2023-05-21T01:16:06.552Z,4.70
2023-05-21T01:18:35.599Z,5.53
2023-05-21T01:21:03.396Z,8.00
2023-05-21T01:23:32.797Z,5.57
2023-05-21T01:26:00.558Z,5.60
2023-05-21T01:28:29.760Z,5.63
2023-05-21T01:30:59.100Z,5.63
2023-05-21T01:33:32.594Z,6.77
2023-05-21T01:36:04.228Z,6.27
2023-05-21T01:38:38.828Z,5.37
2023-05-21T01:41:11.049Z,5.50
2023-05-21T01:43:40.702Z,6.60
2023-05-21T01:46:11.161Z,6.70
2023-05-21T01:48:39.824Z,5.73
2023-05-21T01:51:07.672Z,6.33
2023-05-21T01:53:38.801Z,5.47
2023-05-21T01:56:07.654Z,6.23
2023-05-21T01:58:35.458Z,6.57
2023-05-21T02:01:04.583Z,6.97
2023-05-21T02:03:32.555Z,5.90
2023-05-21T02:06:00.377Z,6.13
2023-05-21T02:08:28.356Z,4.37
2023-05-21T02:10:57.482Z,6.37
2023-05-21T02:13:26.532Z,6.97
2023-05-21T02:15:55.359Z,6.33
2023-05-21T02:18:23.413Z,4.60
2023-05-21T02:20:51.156Z,5.63
2023-05-21T02:23:18.976Z,8.23
2023-05-21T02:25:46.696Z,6.23
2023-05-21T02:28:16.040Z,5.07
2023-05-21T02:30:43.789Z,7.77
2023-05-21T02:33:14.460Z,6.03
2023-05-21T02:35:42.244Z,8.67
2023-05-21T02:38:10.546Z,6.77
2023-05-21T02:40:38.259Z,8.17
2023-05-21T02:43:06.049Z,7.17
2023-05-21T02:45:35.493Z,6.00
2023-05-21T02:48:03.535Z,8.77
2023-05-21T02:50:31.325Z,8.80
2023-05-21T02:52:59.690Z,7.83
2023-05-21T02:55:27.455Z,7.23
2023-05-21T02:57:55.173Z,9.53
2023-05-21T03:00:22.889Z,8.90
2023-05-21T03:02:52.086Z,9.80
2023-05-21T03:05:19.956Z,5.10
2023-05-21T03:07:47.669Z,6.97
2023-05-21T03:10:15.583Z,11.33
2023-05-21T03:12:43.358Z,7.67
2023-05-21T03:15:14.811Z,8.83
2023-05-21T03:17:44.592Z,7.03
2023-05-21T03:20:16.574Z,7.87
2023-05-21T03:22:44.618Z,8.30
2023-05-21T03:25:12.717Z,7.60
2023-05-21T03:27:41.082Z,9.07
2023-05-21T03:30:09.699Z,11.77
2023-05-21T03:32:38.792Z,7.87
2023-05-21T03:35:07.327Z,7.50
2023-05-21T03:37:36.424Z,9.63
2023-05-21T03:40:04.838Z,7.83
2023-05-21T03:42:32.555Z,7.10
2023-05-21T03:45:00.392Z,8.73
2023-05-21T03:47:28.144Z,6.27
2023-05-21T03:49:56.026Z,8.17
2023-05-21T03:52:23.753Z,7.40
2023-05-21T03:54:53.272Z,7.40
2023-05-21T03:57:21.018Z,7.90
2023-05-21T03:59:48.776Z,8.97
2023-05-21T04:02:16.743Z,7.47
2023-05-21T04:04:45.502Z,11.77
2023-05-21T04:07:15.298Z,9.77
2023-05-21T04:09:43.282Z,11.13
2023-05-21T04:12:12.363Z,7.37
2023-05-21T04:14:40.319Z,7.90
2023-05-21T04:17:09.022Z,12.00
2023-05-21T04:19:36.893Z,10.10
2023-05-21T04:22:04.958Z,9.67
2023-05-21T04:24:32.745Z,9.63
2023-05-21T04:27:01.631Z,8.07
2023-05-21T04:29:31.446Z,11.00
2023-05-21T04:31:59.193Z,8.97
2023-05-21T04:34:26.915Z,14.00
2023-05-21T04:36:54.652Z,8.13
2023-05-21T04:39:22.352Z,7.70
2023-05-21T04:41:50.797Z,11.77
2023-05-21T04:44:18.564Z,8.90
2023-05-21T04:46:49.032Z,7.73
2023-05-21T04:49:16.906Z,10.03
2023-05-21T04:51:44.708Z,8.27
2023-05-21T04:54:12.510Z,8.87
2023-05-21T04:56:40.215Z,10.53
2023-05-21T04:59:07.922Z,11.00
2023-05-21T05:01:35.856Z,12.43
2023-05-21T05:04:05.385Z,8.97
2023-05-21T05:06:33.161Z,9.87
2023-05-21T05:09:00.890Z,9.63
2023-05-21T05:11:28.624Z,8.50
2023-05-21T05:13:56.298Z,10.17
2023-05-21T05:16:25.672Z,10.00
2023-05-21T05:18:53.652Z,8.83
2023-05-21T05:21:23.630Z,7.10
2023-05-21T05:23:51.349Z,9.23
2023-05-21T05:26:19.150Z,8.37
2023-05-21T05:28:46.917Z,8.30
2023-05-21T05:31:14.935Z,9.90
2023-05-21T05:33:42.753Z,10.13
2023-05-21T05:36:11.617Z,8.30
2023-05-21T05:38:41.074Z,11.53
2023-05-21T05:41:08.917Z,7.47
2023-05-21T05:43:36.599Z,7.60
2023-05-21T05:46:04.476Z,12.60
2023-05-21T05:48:32.397Z,7.80
2023-05-21T05:51:00.112Z,11.10
2023-05-21T05:53:27.852Z,9.97
2023-05-21T05:55:56.933Z,9.87
2023-05-21T05:58:24.646Z,9.17
2023-05-21T06:00:52.514Z,11.50
2023-05-21T06:03:20.370Z,11.87
2023-05-21T06:05:48.358Z,6.97
2023-05-21T06:08:16.654Z,14.60
2023-05-21T06:10:44.355Z,6.33
2023-05-21T06:13:13.450Z,10.27
2023-05-21T06:15:43.186Z,10.27
2023-05-21T06:18:11.502Z,9.87
2023-05-21T06:20:39.517Z,9.33
2023-05-21T06:23:08.804Z,15.33
2023-05-21T06:25:36.833Z,9.50
2023-05-21T06:28:04.984Z,7.63
2023-05-21T06:30:34.117Z,10.67
2023-05-21T06:33:01.954Z,12.53
2023-05-21T06:35:29.720Z,10.00
2023-05-21T06:37:57.468Z,10.90
2023-05-21T06:40:25.192Z,12.03
2023-05-21T06:42:52.935Z,12.97
2023-05-21T06:45:20.930Z,7.73
2023-05-21T06:47:50.071Z,11.60
2023-05-21T06:50:17.850Z,7.17
2023-05-21T06:52:45.608Z,7.80
2023-05-21T06:55:13.313Z,8.37
2023-05-21T06:57:41.069Z,10.07
2023-05-21T07:00:10.150Z,11.90
2023-05-21T07:02:37.969Z,12.27
2023-05-21T07:05:07.647Z,10.87
2023-05-21T07:07:35.812Z,14.33
2023-05-21T07:10:03.687Z,12.47
2023-05-21T07:12:31.457Z,9.57
2023-05-21T07:14:59.467Z,8.90
2023-05-21T07:17:27.268Z,8.33
2023-05-21T07:19:55.044Z,10.83
2023-05-21T07:22:25.561Z,9.03
2023-05-21T07:24:55.098Z,9.17
2023-05-21T07:27:25.846Z,13.83
2023-05-21T07:29:54.056Z,9.73
2023-05-21T07:32:21.830Z,9.40
2023-05-21T07:34:49.899Z,8.33
2023-05-21T07:37:18.836Z,9.17
2023-05-21T07:39:48.186Z,12.73
2023-05-21T07:42:16.058Z,11.17
2023-05-21T07:44:43.785Z,9.97
2023-05-21T07:47:11.466Z,11.60
2023-05-21T07:49:39.199Z,9.57
2023-05-21T07:52:07.712Z,8.37
2023-05-21T07:54:35.902Z,8.33
2023-05-21T07:57:05.434Z,9.07
2023-05-21T07:59:33.672Z,11.00
2023-05-21T08:02:01.514Z,9.77
2023-05-21T08:04:29.469Z,8.47
2023-05-21T08:06:57.572Z,11.80
2023-05-21T08:09:25.569Z,10.33
2023-05-21T08:11:53.336Z,11.33
2023-05-21T08:14:22.447Z,9.20
2023-05-21T08:16:50.252Z,12.47
2023-05-21T08:19:18.097Z,11.53
2023-05-21T08:21:46.160Z,15.33
2023-05-21T08:24:13.920Z,10.57
2023-05-21T08:26:41.686Z,13.07
2023-05-21T08:29:09.412Z,10.67
2023-05-21T08:31:40.336Z,8.63
2023-05-21T08:34:08.118Z,9.70
2023-05-21T08:36:36.121Z,9.37
2023-05-21T08:39:03.805Z,9.00
2023-05-21T08:41:32.545Z,9.23
2023-05-21T08:44:02.646Z,9.70
2023-05-21T08:46:33.879Z,12.13
2023-05-21T08:49:03.684Z,10.77
2023-05-21T08:51:32.059Z,9.40
2023-05-21T08:54:01.184Z,13.13
2023-05-21T08:56:28.995Z,15.17
2023-05-21T08:58:56.937Z,11.03
2023-05-21T09:01:26.640Z,9.50
2023-05-21T09:04:04.886Z,11.27
2023-05-21T09:06:42.001Z,13.53
2023-05-21T09:09:15.798Z,14.20
2023-05-21T09:11:43.788Z,12.53
2023-05-21T09:14:12.706Z,11.93
2023-05-21T09:16:40.573Z,10.50
2023-05-21T09:19:08.358Z,20.97
2023-05-21T09:21:37.127Z,11.20
2023-05-21T09:24:07.109Z,12.30
2023-05-21T09:26:35.176Z,11.70
2023-05-21T09:29:02.927Z,14.63
2023-05-21T09:31:30.887Z,13.50
2023-05-21T09:33:58.846Z,11.53
2023-05-21T09:36:26.610Z,10.80
2023-05-21T09:38:54.385Z,13.83
2023-05-21T09:41:32.541Z,11.03
2023-05-21T09:44:01.276Z,10.47
2023-05-21T09:46:29.392Z,12.50
2023-05-21T09:48:57.106Z,12.17
2023-05-21T09:51:24.842Z,14.47
2023-05-21T09:53:54.120Z,14.20
2023-05-21T09:56:24.763Z,12.30
2023-05-21T09:58:54.673Z,17.00
2023-05-21T10:01:22.524Z,14.40
2023-05-21T10:03:53.558Z,13.40
2023-05-21T10:06:21.988Z,13.27
2023-05-21T10:08:53.538Z,16.27
2023-05-21T10:11:24.752Z,14.43
2023-05-21T10:13:53.734Z,15.87
2023-05-21T10:16:21.638Z,13.27
2023-05-21T10:18:49.776Z,15.10
2023-05-21T10:21:17.787Z,13.07
2023-05-21T10:23:46.215Z,12.23
2023-05-21T10:26:14.179Z,15.10
2023-05-21T10:28:43.410Z,12.73
2023-05-21T10:31:11.494Z,16.67
2023-05-21T10:33:39.684Z,16.30
2023-05-21T10:36:07.684Z,17.13
2023-05-21T10:38:35.582Z,16.73
2023-05-21T10:41:04.873Z,16.30
2023-05-21T10:43:54.295Z,15.13
2023-05-21T10:46:38.760Z,17.93
2023-05-21T10:49:25.425Z,17.03
2023-05-21T10:52:00.753Z,15.63
2023-05-21T10:54:54.415Z,14.03
2023-05-21T10:57:35.645Z,15.27
2023-05-21T11:00:06.009Z,17.80
2023-05-21T11:02:35.428Z,15.53
2023-05-21T11:05:04.179Z,18.33
2023-05-21T11:07:58.708Z,17.23
2023-05-21T11:10:33.863Z,17.20
2023-05-21T11:13:15.419Z,15.43
2023-05-21T11:16:08.386Z,16.27
2023-05-21T11:18:59.579Z,21.73
2023-05-21T11:21:31.245Z,16.27
2023-05-21T11:24:03.683Z,17.13
2023-05-21T11:27:02.390Z,24.63
2023-05-21T11:29:44.390Z,15.43
2023-05-21T11:32:13.572Z,17.43
2023-05-21T11:34:44.112Z,14.80
2023-05-21T11:37:26.848Z,15.33
2023-05-21T11:39:55.438Z,19.70
2023-05-21T11:42:33.979Z,15.37
2023-05-21T11:45:02.742Z,17.00
2023-05-21T11:47:32.110Z,17.80
2023-05-21T11:50:02.255Z,15.43
2023-05-21T11:52:30.481Z,16.23
2023-05-21T11:54:59.902Z,17.40
2023-05-21T11:57:30.933Z,20.27
2023-05-21T11:59:59.697Z,16.43
2023-05-21T12:02:28.741Z,20.70
2023-05-21T12:04:59.968Z,16.77
2023-05-21T12:07:31.292Z,18.77
2023-05-21T12:09:59.563Z,16.33
2023-05-21T12:12:38.547Z,18.90
2023-05-21T12:15:15.034Z,16.87
2023-05-21T12:17:42.800Z,14.40
2023-05-21T12:20:11.445Z,18.53
2023-05-21T12:22:44.188Z,17.37
2023-05-21T12:25:13.083Z,17.90
2023-05-21T12:27:42.089Z,18.50
2023-05-21T12:30:10.918Z,17.97
2023-05-21T12:32:44.085Z,17.43
2023-05-21T12:35:22.144Z,17.13
2023-05-21T12:37:51.823Z,17.17
2023-05-21T12:40:19.950Z,18.97
2023-05-21T12:42:47.741Z,18.37
2023-05-21T12:45:18.394Z,17.37
2023-05-21T12:47:49.944Z,20.60
2023-05-21T12:50:21.491Z,20.63
2023-05-21T12:52:49.684Z,17.53
2023-05-21T12:55:19.430Z,15.63
2023-05-21T12:57:47.207Z,16.03
2023-05-21T13:00:15.070Z,18.53
2023-05-21T13:02:45.418Z,16.80
2023-05-21T13:05:18.364Z,17.80
2023-05-21T13:07:47.891Z,16.97
2023-05-21T13:10:16.600Z,18.03
2023-05-21T13:12:46.053Z,16.07
2023-05-21T13:15:14.100Z,19.40
2023-05-21T13:17:41.912Z,17.70
2023-05-21T13:20:12.258Z,16.83
2023-05-21T13:22:42.580Z,20.37
2023-05-21T13:25:11.471Z,20.07
2023-05-21T13:27:39.407Z,18.43
2023-05-21T13:30:11.337Z,20.30
2023-05-21T13:32:39.754Z,20.17
2023-05-21T13:35:08.190Z,18.00
2023-05-21T13:37:36.797Z,18.30
2023-05-21T13:40:04.993Z,15.87
2023-05-21T13:42:32.787Z,19.10
2023-05-21T13:45:00.567Z,20.43
2023-05-21T13:47:29.674Z,18.60
2023-05-21T13:49:57.412Z,17.60
2023-05-21T13:52:25.164Z,20.13
2023-05-21T13:54:53.058Z,21.80
2023-05-21T13:57:20.835Z,16.03
2023-05-21T13:59:50.558Z,23.97
2023-05-21T14:02:18.391Z,13.43
2023-05-21T14:04:47.569Z,19.13
2023-05-21T14:07:15.422Z,19.20
2023-05-21T14:09:43.382Z,17.47
2023-05-21T14:12:11.860Z,18.00
2023-05-21T14:14:39.554Z,19.20
2023-05-21T14:17:07.476Z,16.03
2023-05-21T14:19:35.404Z,15.50
2023-05-21T14:22:04.594Z,16.93
2023-05-21T14:24:32.458Z,16.80
2023-05-21T14:27:00.198Z,16.77
2023-05-21T14:29:27.967Z,16.80
2023-05-21T14:31:55.729Z,16.87
2023-05-21T14:34:23.504Z,17.30
2023-05-21T14:36:51.207Z,15.77
2023-05-21T14:39:20.329Z,18.13
2023-05-21T14:41:48.032Z,19.10
2023-05-21T14:44:16.245Z,18.30
2023-05-21T14:46:44.115Z,17.17
2023-05-21T14:49:12.265Z,17.03
2023-05-21T14:51:40.721Z,16.03
2023-05-21T14:54:08.450Z,22.43
2023-05-21T14:56:37.717Z,17.40
2023-05-21T14:59:05.485Z,15.47
2023-05-21T15:01:33.268Z,15.07
2023-05-21T15:04:02.805Z,14.53
2023-05-21T15:06:30.690Z,20.17
2023-05-21T15:08:58.476Z,14.13
2023-05-21T15:11:26.256Z,19.00
2023-05-21T15:13:55.385Z,14.50
2023-05-21T15:16:23.214Z,16.67
2023-05-21T15:18:51.275Z,19.57
2023-05-21T15:21:19.049Z,18.80
2023-05-21T15:23:46.767Z,16.93
2023-05-21T15:26:14.507Z,20.43
2023-05-21T15:28:42.206Z,17.50
2023-05-21T15:31:12.388Z,27.20
2023-05-21T15:33:40.128Z,17.13
2023-05-21T15:36:08.587Z,14.47
2023-05-21T15:38:36.341Z,15.53
2023-05-21T15:41:04.139Z,16.83
2023-05-21T15:43:32.013Z,17.00
2023-05-21T15:45:59.798Z,18.27
2023-05-21T15:48:28.839Z,13.67
2023-05-21T15:50:56.529Z,12.83
2023-05-21T15:53:24.249Z,12.07
2023-05-21T15:55:52.013Z,17.50
2023-05-21T15:58:19.702Z,17.27
2023-05-21T16:00:47.451Z,16.60
2023-05-21T16:03:15.305Z,17.53
2023-05-21T16:05:44.439Z,17.07
2023-05-21T16:08:12.197Z,13.43
2023-05-21T16:10:40.029Z,14.80
2023-05-21T16:13:07.866Z,15.97
2023-05-21T16:15:35.868Z,15.37
2023-05-21T16:18:03.912Z,13.50
2023-05-21T16:20:32.395Z,16.50
2023-05-21T16:23:01.471Z,14.83
2023-05-21T16:25:29.200Z,17.97
2023-05-21T16:27:56.968Z,17.07
2023-05-21T16:30:24.733Z,14.77
2023-05-21T16:32:52.530Z,19.53
2023-05-21T16:35:20.576Z,16.90
2023-05-21T16:37:48.305Z,16.33
2023-05-21T16:40:17.542Z,14.67
2023-05-21T16:42:45.350Z,18.93
2023-05-21T16:45:19.430Z,15.20
2023-05-21T16:47:47.600Z,16.90
2023-05-21T16:50:15.371Z,14.20
2023-05-21T16:52:43.130Z,13.77
2023-05-21T16:55:11.240Z,19.10
2023-05-21T16:57:40.407Z,16.57
2023-05-21T17:00:09.313Z,14.83
2023-05-21T17:02:37.122Z,14.87
2023-05-21T17:05:05.481Z,16.43
2023-05-21T17:07:33.252Z,17.27
2023-05-21T17:10:00.938Z,16.13
2023-05-21T17:12:28.630Z,14.67
2023-05-21T17:14:57.769Z,15.43
2023-05-21T17:17:25.973Z,16.77
2023-05-21T17:19:53.882Z,17.60
2023-05-21T17:22:21.913Z,13.97
2023-05-21T17:24:49.673Z,15.80
2023-05-21T17:27:17.544Z,14.03
2023-05-21T17:29:45.383Z,16.10
2023-05-21T17:32:14.492Z,14.57
2023-05-21T17:34:42.202Z,18.87
2023-05-21T17:37:09.964Z,17.70
2023-05-21T17:39:37.806Z,18.10
2023-05-21T17:42:06.154Z,13.63
2023-05-21T17:44:33.875Z,15.00
2023-05-21T17:47:02.063Z,16.53
2023-05-21T17:49:31.568Z,14.00
2023-05-21T17:52:00.235Z,14.23
2023-05-21T17:54:27.980Z,14.07
2023-05-21T17:56:55.679Z,17.10
2023-05-21T17:59:23.378Z,15.73
2023-05-21T18:01:51.206Z,21.40
2023-05-21T18:04:19.513Z,15.53
2023-05-21T18:06:48.700Z,14.43
2023-05-21T18:09:16.572Z,16.13
2023-05-21T18:11:44.753Z,16.17
2023-05-21T18:14:12.698Z,16.47
2023-05-21T18:16:41.151Z,18.33
2023-05-21T18:19:09.098Z,14.03
2023-05-21T18:21:37.136Z,17.67
2023-05-21T18:24:07.393Z,16.60
2023-05-21T18:26:35.120Z,14.13
2023-05-21T18:29:02.909Z,14.93
2023-05-21T18:31:30.774Z,13.80
2023-05-21T18:33:58.506Z,17.13
2023-05-21T18:36:26.640Z,16.30
2023-05-21T18:38:54.393Z,14.17
2023-05-21T18:41:23.981Z,14.53
2023-05-21T18:43:51.710Z,19.80
2023-05-21T18:46:19.903Z,14.17
2023-05-21T18:48:48.621Z,13.83
2023-05-21T18:51:16.355Z,13.23
2023-05-21T18:53:44.121Z,15.00
2023-05-21T18:56:11.844Z,13.47
2023-05-21T18:58:40.903Z,14.70
2023-05-21T19:01:09.082Z,15.83
2023-05-21T19:03:36.832Z,18.00
2023-05-21T19:06:04.807Z,18.80
2023-05-21T19:08:32.684Z,19.13
2023-05-21T19:11:00.461Z,22.87
2023-05-21T19:13:28.182Z,19.90
2023-05-21T19:15:58.656Z,18.30
2023-05-21T19:18:30.422Z,20.20
2023-05-21T19:21:00.150Z,22.20
2023-05-21T19:23:28.325Z,26.83
2023-05-21T19:25:56.235Z,27.10
2023-05-21T19:28:24.005Z,26.43
2023-05-21T19:30:51.726Z,23.80
2023-05-21T19:33:20.919Z,19.73
2023-05-21T19:35:50.934Z,24.77
2023-05-21T19:38:18.658Z,21.97
2023-05-21T19:40:46.427Z,25.90
2023-05-21T19:43:14.096Z,30.90
2023-05-21T19:45:41.943Z,26.13
2023-05-21T19:48:09.796Z,22.77
2023-05-21T19:50:39.101Z,26.20
2023-05-21T19:53:07.330Z,21.77
2023-05-21T19:55:37.366Z,31.90
2023-05-21T19:58:05.208Z,24.40
2023-05-21T20:00:33.285Z,24.10
2023-05-21T20:03:01.296Z,30.23
2023-05-21T20:05:29.093Z,22.80
2023-05-21T20:07:58.480Z,22.27
2023-05-21T20:10:28.073Z,25.77
2023-05-21T20:12:55.852Z,20.07
2023-05-21T20:15:23.586Z,25.60
2023-05-21T20:17:51.429Z,28.37
2023-05-21T20:20:22.799Z,26.37
2023-05-21T20:22:50.634Z,31.10
2023-05-21T20:25:19.715Z,25.50
2023-05-21T20:27:47.605Z,27.30
2023-05-21T20:30:15.606Z,26.00
2023-05-21T20:32:43.357Z,26.83
2023-05-21T20:35:11.210Z,30.17
2023-05-21T20:37:38.878Z,27.20
2023-05-21T20:40:07.968Z,26.90
2023-05-21T20:42:37.117Z,30.30
2023-05-21T20:45:05.657Z,27.93
2023-05-21T20:47:33.927Z,29.67
2023-05-21T20:50:02.786Z,27.20
2023-05-21T20:52:30.530Z,26.10
2023-05-21T20:55:01.022Z,33.03
2023-05-21T20:57:30.068Z,33.43
2023-05-21T20:59:59.162Z,29.63
2023-05-21T21:02:26.975Z,30.60
2023-05-21T21:04:55.022Z,27.47
2023-05-21T21:07:23.239Z,32.43
2023-05-21T21:09:50.982Z,26.43
2023-05-21T21:12:25.321Z,29.60
2023-05-21T21:14:54.581Z,31.97
2023-05-21T21:17:24.241Z,39.27
2023-05-21T21:19:51.988Z,27.00
2023-05-21T21:22:19.745Z,27.13
2023-05-21T21:24:48.204Z,32.57
2023-05-21T21:27:15.978Z,26.13
2023-05-21T21:29:44.179Z,31.83
2023-05-21T21:32:11.938Z,32.67
2023-05-21T21:34:41.166Z,30.77
2023-05-21T21:37:08.908Z,34.00
2023-05-21T21:39:36.641Z,34.37
2023-05-21T21:42:04.514Z,32.70
2023-05-21T21:44:32.198Z,31.27
2023-05-21T21:46:59.938Z,31.13
2023-05-21T21:49:27.641Z,30.93
2023-05-21T21:51:57.812Z,29.27
2023-05-21T21:54:25.618Z,32.90
2023-05-21T21:56:53.373Z,33.57
2023-05-21T21:59:22.303Z,20.67
2023-05-21T22:01:50.239Z,24.50
2023-05-21T22:04:18.034Z,15.77
2023-05-21T22:06:46.775Z,15.23
2023-05-21T22:09:16.930Z,15.97
2023-05-21T22:11:44.683Z,16.47
2023-05-21T22:14:12.410Z,13.13
2023-05-21T22:16:41.567Z,14.50
2023-05-21T22:19:10.084Z,12.73
2023-05-21T22:21:38.018Z,16.90
2023-05-21T22:24:06.082Z,13.10
2023-05-21T22:26:35.285Z,12.13
2023-05-21T22:29:02.993Z,13.97
2023-05-21T22:31:31.007Z,12.67
2023-05-21T22:33:58.828Z,14.33
2023-05-21T22:36:26.588Z,15.03
2023-05-21T22:38:54.387Z,16.50
2023-05-21T22:41:22.822Z,15.17
2023-05-21T22:43:52.236Z,15.20
2023-05-21T22:46:20.025Z,14.73
2023-05-21T22:48:48.247Z,16.00
2023-05-21T22:51:15.962Z,18.50
2023-05-21T22:53:43.831Z,13.97
2023-05-21T22:56:11.570Z,15.03
2023-05-21T22:58:39.289Z,14.63
2023-05-21T23:01:08.466Z,15.03
2023-05-21T23:03:36.189Z,14.60
2023-05-21T23:06:03.888Z,15.83
2023-05-21T23:08:31.636Z,18.20
2023-05-21T23:10:59.329Z,19.33
2023-05-21T23:13:27.095Z,18.77
2023-05-21T23:15:58.656Z,17.40
2023-05-21T23:18:27.783Z,18.27
2023-05-21T23:20:55.881Z,17.60
2023-05-21T23:23:23.616Z,18.73
2023-05-21T23:25:53.000Z,18.07
2023-05-21T23:28:20.734Z,18.50
2023-05-21T23:30:48.484Z,23.93
2023-05-21T23:33:16.554Z,19.33
2023-05-21T23:35:45.748Z,17.43
2023-05-21T23:38:13.537Z,18.27
2023-05-21T23:40:41.321Z,21.07
2023-05-21T23:43:09.107Z,17.43
2023-05-21T23:45:37.084Z,20.93
2023-05-21T23:48:05.308Z,18.97
2023-05-21T23:50:33.192Z,19.57
2023-05-21T23:53:02.318Z,18.57
2023-05-21T23:55:30.077Z,19.23
2023-05-21T23:57:57.814Z,18.37
